Cross Village, MI (49723)

5:11 AM EST on February 14, 2016 (GMT -0500)
Creekside, 4 Miles WSW Bliss | | Change Station
CLOSE
Current Station
Personal Weather Station
Location: Bliss Township, MI
Elevation: 708 ft
Nearby Weather Stations
Active Advisory: Wind Chill Advisory Active Notice: Record Report

Elev 708 ft 45.65 °N, 84.92 °W | Updated 8 seconds ago

Overcast
Overcast
-4.2 °F
Feels Like -4 °F
N
2.0
Wind Variable Wind from ESE
Gusts 3.0 mph

Today
High -- | Low -- °F
--% Chance of Precip.
Yesterday
High -- | Low -- °F
Precip. -- in
Pressure 30.48 in
Visibility 6.0 miles
Clouds Few 1400 ft
Mostly Cloudy 3900 ft
Windchill -4 °F
Dew Point -7 °F
Humidity 86%
Rainfall 0.00 in
Snow Depth Not available.
7:44 AM 6:04 PM
Waxing Crescent, 40% visible
METAR KPLN 140954Z AUTO 00000KT 6SM HZ FEW014 BKN039 M23/M26 A3041 RMK AO2 SNB00E13 SLP322 P0000 T12281256
Pressure 30.48 in
Visibility 6.0 miles
Clouds Few 1400 ft
Mostly Cloudy 3900 ft
Windchill -4 °F
Dew Point -7 °F
Humidity 86%
Rainfall 0.00 in
Snow Depth Not available.
7:44 AM 6:04 PM
Waxing Crescent, 40% visible
METAR KPLN 140954Z AUTO 00000KT 6SM HZ FEW014 BKN039 M23/M26 A3041 RMK AO2 SNB00E13 SLP322 P0000 T12281256

10-Day Weather Forecast

Almanac

Astronomy

Feb. 14, 2016 Rise Set
Actual Time
Civil Twilight
Nautical Twilight
Astronomical Twilight
Moon
Length of Visible Light
Length of Day
Tomorrow will be .
, % of the Moon is Illuminated

Today's Extremes

State Highs State Lows

Community

WunderPhotos

Upload Photos

1,892,765 photos uploaded!

WunderBlog® & News

Nearby

Air Quality

  Air Quality AQ Index Pollutant
Not available.

Snow Depth

Station Depth Elevation

Earthquake Activity

City Distance Mag. Time & Date
Minimum magnitude displayed is 2.5.

Coastal Water Temperatures

Place Temperature

Stations

Nearby Weather Stations

Station Location Temp. Windchill Dew Point Humidity Wind Precip. Elev Updated Type
                   

Watches & Warnings

Wind Chill Advisory
Issued: 4:04 AM EST Feb. 14, 2016 – National Weather Service

... Wind Chill Advisory remains in effect until 10 am EST this
morning...

* wind chill values of 20 to 30 below zero are expected through
daybreak.

* It only takes 20 to 30 minutes of unprotected exposure to
these temperatures to get frostbite.

Precautionary/preparedness actions...

A Wind Chill Advisory means that very cold air and strong winds
will combine to generate low wind chills. This will result in
frost bite and lead to hypothermia if precautions are not taken.
If you must venture outdoors... make sure you wear a hat and
gloves.



Smd